Hlavní strana
METAR-TAF:

METAR-TAF

Letiště :

Yap, Mikronésie

zeměpisná šířka: 09-29N, zeměpisná délka: 138-05E, výška: 28 m

Aktuální stav počasí

Zpráva byla vytvořena před 38 minutami, v 00:50 UTC
Východní vítr 10 kt
Teplota 30°C
Vlhkost vzduchu 75%
Tlak 1011 hPa
Viditelnost: 19.3 km
Skoro jasno ve výšce 1600 ft
Oblačno až skoro zataženo ve výšce 13000 ft
Oblačno až skoro zataženo ve výšce 30000 ft

METAR: PTYA 060050Z 08010KT 12SM FEW016 BKN130 BKN300 30/25 A2985 RMK SLP110 T02990251

Čas: 11:28 (01:28 UTC)

Předpověď počasí

Zpráva byla vytvořena před 1 hodinou a 56 minutami, v 23:32 UTC
Předpověď platná od 06 v 00 UTC do 06 v 24 UTC
Východoseverovýchodní vítr 10 kt
Viditelnost: 10 km
Polojasno ve výšce 1600 ft
Oblačno až skoro zataženo ve výšce 12000 ft
přeháňky v blízkosti

TAF: PTYA 052332Z 0600/0624 07010KT P6SM VCSH SCT016 BKN120

Stav a předpovědi počasí z více než 4 000 letišť (zprávy METAR a TAF).

Červené a žluté tečky na mapě představují dostupné meteorologické stanice.

Když kurzor umístíte na tečku, zobrazí se název stanice.

Pak kliknutím zobrazíte stav a předpověď počasí.

Chcete-li změnit mapu, kliknutím na zelené tlačítko se znaménkem +mapu přiblížíte, kliknutím na zelené tlačítko se znaménkem – mapu oddálíte a kliknutím na zelené šipky přejdete na sousední mapy.


METAR-TAF: